Time;durP1;ratioP1;P1;durP2;ratioP2;P2;SDS_P1;SDS_P2;PMS_P1;PMS_P2;Temp;Humidity;BMP_temperature;BMP_pressure;BME280_temperature;BME280_humidity;BME280_pressure;Samples;Min_cycle;Max_cycle;Signal;HPM_P1;HPM_P2
2022/03/08 00:03:33;;;;;;;;;47.50;47.50;;;;;;;;2;261077526;261077526;-75
2022/03/08 00:13:00;;;;;;;;;25.50;22.00;;;;;;;;2;288084257;288084257;-75
2022/03/08 00:21:16;;;;;;;;;33.00;27.50;;;;;;;;2;261079022;261079022;-75
2022/03/08 00:30:44;;;;;;;;;34.50;29.50;;;;;;;;2;288088190;288088190;-75
2022/03/08 00:38:59;;;;;;;;;1.00;1.00;;;;;;;;2;261080093;261080093;-75
2022/03/08 00:48:27;;;;;;;;;34.00;29.50;;;;;;;;2;288086616;288086616;-75
2022/03/08 00:56:42;;;;;;;;;60.50;60.50;;;;;;;;2;261079006;261079006;-75
2022/03/08 01:06:10;;;;;;;;;0.00;0.00;;;;;;;;2;288085436;288085436;-75
2022/03/08 01:14:26;;;;;;;;;0.00;0.00;;;;;;;;2;261078901;261078901;-75
2022/03/08 01:23:54;;;;;;;;;0.00;0.00;;;;;;;;2;288086088;288086088;-75
2022/03/08 01:32:09;;;;;;;;;0.00;0.00;;;;;;;;2;261077589;261077589;-75
2022/03/08 01:41:37;;;;;;;;;0.00;0.00;;;;;;;;2;288086023;288086023;-75
2022/03/08 01:49:53;;;;;;;;;0.00;0.00;;;;;;;;2;261077672;261077672;-74
2022/03/08 01:59:20;;;;;;;;;0.00;0.00;;;;;;;;2;288085400;288085400;-74
2022/03/08 02:07:36;;;;;;;;;0.00;0.00;;;;;;;;2;261078667;261078667;-74
2022/03/08 02:17:04;;;;;;;;;0.00;0.00;;;;;;;;2;288085697;288085697;-74
2022/03/08 02:25:20;;;;;;;;;0.00;0.00;;;;;;;;2;261076296;261076296;-74
2022/03/08 02:34:47;;;;;;;;;0.00;0.00;;;;;;;;2;288084437;288084437;-75
2022/03/08 02:43:04;;;;;;;;;0.00;0.00;;;;;;;;2;261077598;261077598;-74
2022/03/08 02:52:32;;;;;;;;;0.00;0.00;;;;;;;;2;288083321;288083321;-74
2022/03/08 03:00:47;;;;;;;;;0.00;0.00;;;;;;;;2;261076114;261076114;-75
2022/03/08 03:10:17;;;;;;;;;0.00;0.00;;;;;;;;2;288085079;288085079;-75
2022/03/08 03:18:32;;;;;;;;;3.50;3.50;;;;;;;;2;261077731;261077731;-75
2022/03/08 03:28:00;;;;;;;;;0.00;0.00;;;;;;;;2;288085216;288085216;-75
2022/03/08 03:36:15;;;;;;;;;0.00;0.00;;;;;;;;2;261077302;261077302;-74
2022/03/08 03:45:43;;;;;;;;;4.50;4.50;;;;;;;;2;288082206;288082206;-74
2022/03/08 03:53:58;;;;;;;;;4.00;4.00;;;;;;;;2;261076461;261076461;-74
2022/03/08 04:03:26;;;;;;;;;0.00;0.00;;;;;;;;2;288083824;288083824;-74
2022/03/08 04:11:41;;;;;;;;;0.00;0.00;;;;;;;;2;261076741;261076741;-74
2022/03/08 04:21:09;;;;;;;;;0.00;0.00;;;;;;;;2;288084684;288084684;-74
2022/03/08 04:29:24;;;;;;;;;0.00;0.00;;;;;;;;2;261076131;261076131;-74
2022/03/08 04:38:52;;;;;;;;;6.00;6.00;;;;;;;;2;288084834;288084834;-74
2022/03/08 04:47:07;;;;;;;;;0.00;0.00;;;;;;;;2;261077855;261077855;-74
2022/03/08 04:56:35;;;;;;;;;0.00;0.00;;;;;;;;2;288088254;288088254;-74
2022/03/08 05:04:50;;;;;;;;;0.00;0.00;;;;;;;;2;261078764;261078764;-74
2022/03/08 05:14:18;;;;;;;;;0.00;0.00;;;;;;;;2;288085684;288085684;-74
2022/03/08 05:22:33;;;;;;;;;0.00;0.00;;;;;;;;2;261075685;261075685;-74
2022/03/08 05:32:01;;;;;;;;;0.00;0.00;;;;;;;;2;288084233;288084233;-74
2022/03/08 05:40:17;;;;;;;;;1.00;1.00;;;;;;;;2;261075586;261075586;-75
2022/03/08 05:49:44;;;;;;;;;0.00;0.00;;;;;;;;2;288082507;288082507;-75
2022/03/08 05:58:00;;;;;;;;;0.00;0.00;;;;;;;;2;261078138;261078138;-74
2022/03/08 06:07:27;;;;;;;;;0.00;0.00;;;;;;;;2;288085827;288085827;-73
2022/03/08 06:15:43;;;;;;;;;1.00;1.00;;;;;;;;2;261079533;261079533;-74
2022/03/08 06:25:11;;;;;;;;;0.00;0.00;;;;;;;;2;288086988;288086988;-75
2022/03/08 06:33:26;;;;;;;;;0.00;0.00;;;;;;;;2;261077679;261077679;-75
2022/03/08 06:42:54;;;;;;;;;0.00;0.00;;;;;;;;2;288082373;288082373;-74
2022/03/08 06:51:09;;;;;;;;;0.00;0.00;;;;;;;;2;261075176;261075176;-73
2022/03/08 07:00:37;;;;;;;;;0.00;0.00;;;;;;;;2;288086603;288086603;-74
2022/03/08 07:08:53;;;;;;;;;0.00;0.00;;;;;;;;2;261076825;261076825;-71
2022/03/08 07:18:21;;;;;;;;;0.00;0.00;;;;;;;;2;288084738;288084738;-74
2022/03/08 07:26:36;;;;;;;;;0.00;0.00;;;;;;;;2;261076660;261076660;-74
2022/03/08 07:36:04;;;;;;;;;0.00;0.00;;;;;;;;2;288084931;288084931;-74
2022/03/08 07:44:20;;;;;;;;;0.00;0.00;;;;;;;;2;261077011;261077011;-74
2022/03/08 07:53:47;;;;;;;;;0.00;0.00;;;;;;;;2;288082786;288082786;-74
2022/03/08 08:02:03;;;;;;;;;0.00;0.00;;;;;;;;2;261076968;261076968;-74
2022/03/08 08:11:30;;;;;;;;;0.00;0.00;;;;;;;;2;288086281;288086281;-73
2022/03/08 08:19:46;;;;;;;;;0.00;0.00;;;;;;;;2;261078157;261078157;-75
2022/03/08 08:29:14;;;;;;;;;0.00;0.00;;;;;;;;2;288086675;288086675;-74
2022/03/08 08:37:30;;;;;;;;;0.00;0.00;;;;;;;;2;261078832;261078832;-75
2022/03/08 08:46:57;;;;;;;;;0.00;0.00;;;;;;;;2;288085305;288085305;-74
2022/03/08 08:55:13;;;;;;;;;0.00;0.00;;;;;;;;2;261080492;261080492;-75
2022/03/08 09:04:41;;;;;;;;;0.00;0.00;;;;;;;;2;288086822;288086822;-75
2022/03/08 09:12:56;;;;;;;;;0.00;0.00;;;;;;;;2;261079813;261079813;-75
2022/03/08 09:22:24;;;;;;;;;0.00;0.00;;;;;;;;2;288086907;288086907;-75
2022/03/08 09:30:41;;;;;;;;;0.00;0.00;;;;;;;;2;261078738;261078738;-76
2022/03/08 09:40:09;;;;;;;;;0.00;0.00;;;;;;;;2;288084479;288084479;-75
2022/03/08 09:48:25;;;;;;;;;0.00;0.00;;;;;;;;2;261081181;261081181;-75
2022/03/08 09:57:53;;;;;;;;;0.00;0.00;;;;;;;;2;288087877;288087877;-75
2022/03/08 10:06:10;;;;;;;;;0.00;0.00;;;;;;;;2;261081218;261081218;-76
2022/03/08 10:15:37;;;;;;;;;0.00;0.00;;;;;;;;2;288083500;288083500;-76
2022/03/08 10:23:53;;;;;;;;;0.00;0.00;;;;;;;;2;261076883;261076883;-76
2022/03/08 10:33:32;;;;;;;;;0.00;0.00;;;;;;;;2;288087773;288087773;-75
2022/03/08 10:41:48;;;;;;;;;0.00;0.00;;;;;;;;2;261075348;261075348;-75
2022/03/08 10:51:17;;;;;;;;;0.00;0.00;;;;;;;;2;288086703;288086703;-75
2022/03/08 10:59:32;;;;;;;;;0.00;0.00;;;;;;;;2;261079585;261079585;-75
2022/03/08 11:09:00;;;;;;;;;0.00;0.00;;;;;;;;2;288089819;288089819;-75
2022/03/08 11:17:16;;;;;;;;;0.00;0.00;;;;;;;;2;261079987;261079987;-75
2022/03/08 11:26:44;;;;;;;;;0.00;0.00;;;;;;;;2;288088038;288088038;-76
2022/03/08 11:35:04;;;;;;;;;0.00;0.00;;;;;;;;2;261080997;261080997;-76
2022/03/08 11:44:33;;;;;;;;;0.00;0.00;;;;;;;;2;288089886;288089886;-76
2022/03/08 11:53:03;;;;;;;;;0.00;0.00;;;;;;;;2;261073981;261073981;-77
2022/03/08 12:02:30;;;;;;;;;0.00;0.00;;;;;;;;2;288089654;288089654;-77
2022/03/08 12:10:47;;;;;;;;;0.00;0.00;;;;;;;;2;261078210;261078210;-76
2022/03/08 12:20:15;;;;;;;;;0.00;0.00;;;;;;;;2;288083091;288083091;-76
2022/03/08 12:28:49;;;;;;;;;0.00;0.00;;;;;;;;2;261076855;261076855;-76
2022/03/08 12:38:17;;;;;;;;;0.00;0.00;;;;;;;;2;288084096;288084096;-76
2022/03/08 12:46:33;;;;;;;;;0.00;0.00;;;;;;;;2;261077629;261077629;-76
2022/03/08 12:56:03;;;;;;;;;0.00;0.00;;;;;;;;2;288087747;288087747;-77
2022/03/08 13:04:23;;;;;;;;;0.00;0.00;;;;;;;;2;261083686;261083686;-76
2022/03/08 13:13:51;;;;;;;;;0.00;0.00;;;;;;;;2;288088172;288088172;-75
2022/03/08 13:22:06;;;;;;;;;0.00;0.00;;;;;;;;2;261077577;261077577;-76
2022/03/08 13:31:34;;;;;;;;;0.00;0.00;;;;;;;;2;288087013;288087013;-77
2022/03/08 13:39:49;;;;;;;;;0.00;0.00;;;;;;;;2;261075334;261075334;-77
2022/03/08 13:49:18;;;;;;;;;0.00;0.00;;;;;;;;2;288084966;288084966;-77
2022/03/08 13:57:34;;;;;;;;;0.00;0.00;;;;;;;;2;261075637;261075637;-76
2022/03/08 14:07:02;;;;;;;;;0.00;0.00;;;;;;;;2;288083265;288083265;-77
2022/03/08 14:15:19;;;;;;;;;0.00;0.00;;;;;;;;2;261078733;261078733;-75
2022/03/08 14:24:59;;;;;;;;;0.00;0.00;;;;;;;;2;288086772;288086772;-75
2022/03/08 14:33:14;;;;;;;;;0.00;0.00;;;;;;;;2;261079403;261079403;-76
2022/03/08 14:42:42;;;;;;;;;0.00;0.00;;;;;;;;2;288088689;288088689;-77
2022/03/08 14:50:58;;;;;;;;;0.00;0.00;;;;;;;;2;261079386;261079386;-77
2022/03/08 15:00:26;;;;;;;;;0.00;0.00;;;;;;;;2;288085821;288085821;-77
2022/03/08 15:08:42;;;;;;;;;0.00;0.00;;;;;;;;2;261076800;261076800;-77
2022/03/08 15:18:09;;;;;;;;;0.00;0.00;;;;;;;;2;288086969;288086969;-77
2022/03/08 15:26:26;;;;;;;;;0.00;0.00;;;;;;;;2;261077039;261077039;-76
2022/03/08 15:35:54;;;;;;;;;0.00;0.00;;;;;;;;2;288084967;288084967;-77
2022/03/08 15:44:10;;;;;;;;;0.00;0.00;;;;;;;;2;261072884;261072884;-77
2022/03/08 15:53:37;;;;;;;;;0.00;0.00;;;;;;;;2;288083245;288083245;-76
2022/03/08 16:01:53;;;;;;;;;0.00;0.00;;;;;;;;2;261076276;261076276;-75
2022/03/08 16:11:20;;;;;;;;;0.00;0.00;;;;;;;;2;288082010;288082010;-76
2022/03/08 16:19:36;;;;;;;;;0.00;0.00;;;;;;;;2;261076681;261076681;-76
2022/03/08 16:29:03;;;;;;;;;0.00;0.00;;;;;;;;2;288084018;288084018;-76
2022/03/08 16:37:19;;;;;;;;;0.00;0.00;;;;;;;;2;261078638;261078638;-76
2022/03/08 16:46:47;;;;;;;;;0.00;0.00;;;;;;;;2;288082914;288082914;-76
2022/03/08 16:55:02;;;;;;;;;0.00;0.00;;;;;;;;2;261073828;261073828;-76
2022/03/08 17:04:30;;;;;;;;;0.00;0.00;;;;;;;;2;288086188;288086188;-76
2022/03/08 17:12:45;;;;;;;;;0.00;0.00;;;;;;;;2;261077923;261077923;-75
2022/03/08 17:25:32;;;;;;;;;0.00;0.00;;;;;;;;2;288087868;288087868;-75
2022/03/08 17:33:47;;;;;;;;;0.00;0.00;;;;;;;;2;261077747;261077747;-76
2022/03/08 17:43:15;;;;;;;;;0.00;0.00;;;;;;;;2;288085893;288085893;-77
2022/03/08 17:51:30;;;;;;;;;0.00;0.00;;;;;;;;2;261076186;261076186;-76
2022/03/08 18:01:01;;;;;;;;;0.00;0.00;;;;;;;;2;288083234;288083234;-77
2022/03/08 18:09:16;;;;;;;;;0.00;0.00;;;;;;;;2;261078569;261078569;-79
2022/03/08 18:18:44;;;;;;;;;0.00;0.00;;;;;;;;2;288083730;288083730;-80
2022/03/08 18:26:59;;;;;;;;;0.00;0.00;;;;;;;;2;261076428;261076428;-77
2022/03/08 18:36:27;;;;;;;;;0.00;0.00;;;;;;;;2;288088399;288088399;-77
2022/03/08 18:44:43;;;;;;;;;0.00;0.00;;;;;;;;2;261077801;261077801;-78
2022/03/08 18:54:10;;;;;;;;;0.00;0.00;;;;;;;;2;288085305;288085305;-76
2022/03/08 19:02:26;;;;;;;;;0.00;0.00;;;;;;;;2;261076991;261076991;-77
2022/03/08 19:11:53;;;;;;;;;0.00;0.00;;;;;;;;2;288086341;288086341;-79
2022/03/08 19:20:09;;;;;;;;;0.00;0.00;;;;;;;;2;261078031;261078031;-76
2022/03/08 19:29:37;;;;;;;;;0.00;0.00;;;;;;;;2;288085027;288085027;-76
2022/03/08 19:37:52;;;;;;;;;0.00;0.00;;;;;;;;2;261078026;261078026;-76
2022/03/08 19:47:20;;;;;;;;;0.00;0.00;;;;;;;;2;288083919;288083919;-77
2022/03/08 19:55:35;;;;;;;;;0.00;0.00;;;;;;;;2;261074859;261074859;-76
2022/03/08 20:05:03;;;;;;;;;0.00;0.00;;;;;;;;2;288083445;288083445;-77
2022/03/08 20:13:19;;;;;;;;;0.00;0.00;;;;;;;;2;261080076;261080076;-77
2022/03/08 20:22:47;;;;;;;;;0.00;0.00;;;;;;;;2;288086696;288086696;-77
2022/03/08 20:31:03;;;;;;;;;0.00;0.00;;;;;;;;2;261078054;261078054;-77
2022/03/08 20:40:31;;;;;;;;;0.00;0.00;;;;;;;;2;288083804;288083804;-77
2022/03/08 20:48:46;;;;;;;;;0.00;0.00;;;;;;;;2;261079062;261079062;-77
2022/03/08 20:58:14;;;;;;;;;0.00;0.00;;;;;;;;2;288086788;288086788;-76
2022/03/08 21:06:30;;;;;;;;;0.00;0.00;;;;;;;;2;261079365;261079365;-76
2022/03/08 21:15:58;;;;;;;;;0.00;0.00;;;;;;;;2;288084918;288084918;-76
2022/03/08 21:24:13;;;;;;;;;0.00;0.00;;;;;;;;2;261078470;261078470;-75
2022/03/08 21:33:41;;;;;;;;;0.00;0.00;;;;;;;;2;288085353;288085353;-75
2022/03/08 21:41:57;;;;;;;;;0.00;0.00;;;;;;;;2;261078368;261078368;-75
2022/03/08 21:51:24;;;;;;;;;0.00;0.00;;;;;;;;2;288082873;288082873;-75
2022/03/08 21:59:40;;;;;;;;;0.00;0.00;;;;;;;;2;261078491;261078491;-75
2022/03/08 22:09:07;;;;;;;;;0.00;0.00;;;;;;;;2;288084383;288084383;-76
2022/03/08 22:17:23;;;;;;;;;0.00;0.00;;;;;;;;2;261078740;261078740;-75
2022/03/08 22:26:51;;;;;;;;;0.00;0.00;;;;;;;;2;288082341;288082341;-75
2022/03/08 22:35:06;;;;;;;;;0.00;0.00;;;;;;;;2;261077428;261077428;-76
2022/03/08 22:44:34;;;;;;;;;0.00;0.00;;;;;;;;2;288087401;288087401;-75
2022/03/08 22:52:49;;;;;;;;;0.00;0.00;;;;;;;;2;261075476;261075476;-75
2022/03/08 23:02:17;;;;;;;;;0.00;0.00;;;;;;;;2;288082332;288082332;-75
2022/03/08 23:10:32;;;;;;;;;0.00;0.00;;;;;;;;2;261076929;261076929;-76
2022/03/08 23:20:00;;;;;;;;;0.00;0.00;;;;;;;;2;288083143;288083143;-76
2022/03/08 23:28:15;;;;;;;;;0.00;0.00;;;;;;;;2;261075346;261075346;-77
2022/03/08 23:37:43;;;;;;;;;0.00;0.00;;;;;;;;2;288082441;288082441;-77
2022/03/08 23:45:58;;;;;;;;;0.00;0.00;;;;;;;;2;261075370;261075370;-77
2022/03/08 23:55:26;;;;;;;;;0.00;0.00;;;;;;;;2;288082868;288082868;-77
